Time;durP1;ratioP1;P1;durP2;ratioP2;P2;SDS_P1;SDS_P2;PMS_P1;PMS_P2;Temp;Humidity;BMP_temperature;BMP_pressure;BME280_temperature;BME280_humidity;BME280_pressure;Samples;Min_cycle;Max_cycle;Signal;HPM_P1;HPM_P2
2023/12/10 00:00:05;;;;;;;3.10;1.47;;;24.60;99.90;;;;;;4973964;28;20189;-73
2023/12/10 00:02:33;;;;;;;2.60;1.63;;;24.70;99.90;;;;;;4972633;28;20577;-73
2023/12/10 00:05:01;;;;;;;2.73;1.70;;;24.70;99.90;;;;;;4973665;28;20258;-74
2023/12/10 00:07:28;;;;;;;2.30;1.80;;;24.80;99.90;;;;;;4972365;28;20257;-74
2023/12/10 00:09:55;;;;;;;2.20;2.00;;;24.90;99.90;;;;;;4972418;28;20180;-73
2023/12/10 00:12:23;;;;;;;3.53;1.73;;;24.90;99.90;;;;;;4973544;28;20179;-73
2023/12/10 00:14:54;;;;;;;5.07;2.50;;;24.80;99.90;;;;;;4973497;28;20174;-73
2023/12/10 00:17:24;;;;;;;4.40;2.00;;;24.80;99.90;;;;;;4973170;28;20187;-71
2023/12/10 00:19:52;;;;;;;4.90;2.13;;;24.70;99.90;;;;;;4973457;28;20202;-72
2023/12/10 00:22:19;;;;;;;2.90;2.10;;;24.80;99.90;;;;;;4973315;28;20211;-74
2023/12/10 00:24:46;;;;;;;3.70;1.37;;;25.00;99.90;;;;;;4973078;28;20179;-73
2023/12/10 00:27:14;;;;;;;3.77;1.60;;;25.00;99.90;;;;;;4973476;28;20191;-73
2023/12/10 00:29:41;;;;;;;3.20;1.80;;;25.00;99.90;;;;;;4973306;28;20179;-73
2023/12/10 00:32:09;;;;;;;4.40;2.17;;;25.00;99.90;;;;;;4972936;28;20197;-73
2023/12/10 00:34:36;;;;;;;3.57;1.90;;;25.10;99.90;;;;;;4973427;28;20179;-72
2023/12/10 00:37:03;;;;;;;2.70;2.07;;;25.20;99.90;;;;;;4973081;28;20206;-73
2023/12/10 00:39:31;;;;;;;4.30;2.40;;;25.20;99.90;;;;;;4973050;28;20713;-73
2023/12/10 00:41:58;;;;;;;4.93;2.10;;;25.20;99.90;;;;;;4972695;28;20211;-74
2023/12/10 00:44:25;;;;;;;2.47;2.07;;;25.30;99.90;;;;;;4973389;28;20183;-73
2023/12/10 00:46:53;;;;;;;5.60;2.27;;;25.30;99.90;;;;;;4971246;28;20183;-75
2023/12/10 00:49:20;;;;;;;5.93;2.50;;;25.30;99.90;;;;;;4971799;28;20190;-73
2023/12/10 00:51:48;;;;;;;4.30;2.03;;;25.40;99.90;;;;;;4971504;28;20187;-72
2023/12/10 00:54:16;;;;;;;4.20;2.00;;;25.60;99.90;;;;;;4975395;28;20206;-73
2023/12/10 00:56:43;;;;;;;2.27;2.00;;;25.70;99.90;;;;;;4993346;28;20206;-72
2023/12/10 00:59:11;;;;;;;2.50;1.90;;;25.80;99.90;;;;;;4975628;28;20182;-73
2023/12/10 01:01:38;;;;;;;3.33;1.97;;;25.90;99.90;;;;;;4991639;28;20588;-73
2023/12/10 01:04:05;;;;;;;3.10;1.90;;;26.10;99.90;;;;;;4992320;28;20171;-72
2023/12/10 01:06:33;;;;;;;4.53;1.77;;;26.20;99.90;;;;;;4992342;28;20666;-71
2023/12/10 01:09:00;;;;;;;4.37;2.40;;;26.10;99.90;;;;;;4991633;28;20179;-72
2023/12/10 01:11:28;;;;;;;2.37;1.60;;;26.10;99.90;;;;;;4991881;28;20182;-72
2023/12/10 01:13:55;;;;;;;2.40;2.00;;;26.10;99.90;;;;;;4992007;28;20720;-72
2023/12/10 01:16:22;;;;;;;4.17;1.67;;;26.00;99.90;;;;;;4991843;28;20174;-74
2023/12/10 01:18:50;;;;;;;3.77;2.10;;;25.90;99.90;;;;;;4992102;28;20206;-74
2023/12/10 01:21:17;;;;;;;2.63;1.63;;;25.90;99.90;;;;;;4988515;28;20585;-74
2023/12/10 01:23:45;;;;;;;5.43;2.27;;;25.90;99.90;;;;;;4990907;28;20252;-71
2023/12/10 01:26:14;;;;;;;2.73;1.80;;;26.10;99.90;;;;;;4991858;28;20193;-72
2023/12/10 01:28:41;;;;;;;5.03;2.23;;;26.40;99.90;;;;;;4991883;28;20229;-73
2023/12/10 01:31:09;;;;;;;4.40;2.10;;;26.60;99.90;;;;;;4991500;28;20542;-73
2023/12/10 01:33:36;;;;;;;2.10;1.90;;;26.60;99.90;;;;;;4991747;28;20598;-73
2023/12/10 01:36:04;;;;;;;4.70;2.30;;;26.70;99.90;;;;;;4991654;28;20628;-73
2023/12/10 01:38:31;;;;;;;3.97;2.87;;;26.60;99.90;;;;;;4990818;28;20178;-75
2023/12/10 01:40:58;;;;;;;3.73;2.10;;;26.70;99.90;;;;;;4991716;28;20727;-75
2023/12/10 01:43:26;;;;;;;3.87;2.30;;;27.00;99.90;;;;;;4991356;28;20210;-74
2023/12/10 01:45:54;;;;;;;3.50;2.57;;;27.10;99.90;;;;;;4974073;28;20182;-73
2023/12/10 01:48:23;;;;;;;4.23;2.00;;;27.30;99.90;;;;;;4991965;28;20195;-74
2023/12/10 01:50:53;;;;;;;3.83;2.40;;;27.50;99.90;;;;;;4991919;28;20179;-74
2023/12/10 01:53:22;;;;;;;4.13;2.00;;;28.10;99.90;;;;;;4991183;28;20320;-73
2023/12/10 01:55:50;;;;;;;7.70;2.60;;;28.90;99.90;;;;;;4991806;28;20273;-74
2023/12/10 01:58:17;;;;;;;2.53;2.10;;;29.30;99.90;;;;;;4991677;28;20280;-73
2023/12/10 02:00:44;;;;;;;4.13;2.23;;;29.40;99.90;;;;;;4991384;28;20189;-74
2023/12/10 02:03:12;;;;;;;3.67;2.00;;;29.70;99.90;;;;;;4974048;28;20792;-73
2023/12/10 02:05:39;;;;;;;4.60;2.30;;;29.90;99.90;;;;;;4974077;28;20553;-73
2023/12/10 02:11:28;;;;;;;3.17;2.07;;;29.60;99.90;;;;;;4991052;28;20213;-75
2023/12/10 02:13:56;;;;;;;4.40;2.40;;;29.40;99.90;;;;;;4991615;28;20194;-74
2023/12/10 02:16:23;;;;;;;2.93;2.10;;;29.20;99.90;;;;;;4990873;28;20626;-73
2023/12/10 02:18:50;;;;;;;4.53;2.40;;;29.10;99.90;;;;;;4991744;28;20175;-73
2023/12/10 02:21:18;;;;;;;6.50;2.50;;;29.00;99.90;;;;;;4991887;28;20175;-74
2023/12/10 02:23:55;;;;;;;3.65;1.70;;;29.20;99.90;;;;;;4992156;28;20183;-74
2023/12/10 02:26:22;;;;;;;8.33;2.47;;;29.80;99.90;;;;;;4997978;28;20178;-74
2023/12/10 02:28:50;;;;;;;3.63;2.30;;;30.40;99.90;;;;;;4978201;28;20194;-75
2023/12/10 02:31:19;;;;;;;7.13;2.33;;;30.50;99.90;;;;;;4994968;28;20821;-74
2023/12/10 02:33:50;;;;;;;4.77;2.10;;;30.80;99.90;;;;;;4995329;28;20178;-74
2023/12/10 02:37:07;;;;;;;3.78;2.13;;;30.70;99.90;;;;;;4993054;28;20196;-74
2023/12/10 02:39:36;;;;;;;6.23;2.30;;;30.80;99.90;;;;;;4994886;28;20548;-75
2023/12/10 02:42:03;;;;;;;4.97;2.20;;;30.30;99.90;;;;;;4994605;28;20202;-73
2023/12/10 02:47:53;;;;;;;5.32;2.13;;;32.00;99.90;;;;;;4994676;28;20364;-72
2023/12/10 02:50:20;;;;;;;4.80;1.80;;;32.40;99.90;;;;;;4994611;28;20543;-72
2023/12/10 02:52:47;;;;;;;5.13;2.17;;;32.90;99.90;;;;;;4976766;28;20614;-74
2023/12/10 02:58:37;;;;;;;3.65;2.05;;;31.80;99.90;;;;;;4993835;28;20213;-75
2023/12/10 03:01:05;;;;;;;4.97;2.05;;;31.80;99.90;;;;;;4994326;28;20190;-72
2023/12/10 03:03:32;;;;;;;5.43;2.00;;;31.70;99.90;;;;;;4977043;28;20221;-68
2023/12/10 03:05:59;;;;;;;57.92;8.23;;;32.10;99.90;;;;;;4994146;28;20711;-71
2023/12/10 03:08:27;;;;;;;7.28;2.30;;;32.10;99.90;;;;;;4993847;28;20194;-69
2023/12/10 03:10:54;;;;;;;6.35;1.85;;;32.40;99.90;;;;;;4994392;28;20183;-70
2023/12/10 03:13:21;;;;;;;9.75;2.30;;;31.80;99.90;;;;;;4994354;28;20187;-70
2023/12/10 03:15:49;;;;;;;5.93;2.30;;;31.20;99.90;;;;;;4993820;28;20222;-70
2023/12/10 03:18:16;;;;;;;6.95;2.08;;;31.10;99.90;;;;;;4994710;28;20175;-68
2023/12/10 03:20:43;;;;;;;3.55;1.95;;;31.40;99.90;;;;;;4993823;28;20182;-67
2023/12/10 03:23:10;;;;;;;2.80;1.23;;;32.30;99.90;;;;;;4976714;28;20268;-70
2023/12/10 03:26:02;;;;;;;5.00;1.73;;;31.90;99.90;;;;;;4995120;28;20266;-70
2023/12/10 03:28:29;;;;;;;2.78;1.42;;;31.00;99.90;;;;;;4995167;28;20671;-68
2023/12/10 03:30:57;;;;;;;6.25;1.75;;;30.90;99.90;;;;;;4994424;28;20258;-70
2023/12/10 03:33:24;;;;;;;10.45;2.70;;;31.50;99.90;;;;;;4994184;28;20778;-75
2023/12/10 03:39:13;;;;;;;3.30;1.38;;;31.50;99.90;;;;;;4993792;28;20186;-71
2023/12/10 03:41:41;;;;;;;6.07;2.10;;;32.10;99.90;;;;;;4976284;28;20292;-73
2023/12/10 03:44:08;;;;;;;3.90;1.40;;;32.50;99.90;;;;;;4993120;28;20190;-68
2023/12/10 03:46:35;;;;;;;5.88;1.48;;;32.30;99.90;;;;;;4993813;28;20174;-71
2023/12/10 03:49:03;;;;;;;7.72;1.65;;;31.80;99.90;;;;;;4994122;28;20197;-72
2023/12/10 03:51:30;;;;;;;2.30;1.20;;;31.20;99.90;;;;;;4993164;28;20175;-70
2023/12/10 03:53:58;;;;;;;3.88;1.60;;;31.00;99.90;;;;;;4993567;28;20217;-71
2023/12/10 03:56:25;;;;;;;7.03;1.75;;;30.70;99.90;;;;;;4993341;28;20269;-67
2023/12/10 03:58:52;;;;;;;4.07;1.20;;;31.00;99.90;;;;;;4993226;28;20661;-70
2023/12/10 04:01:20;;;;;;;3.50;1.27;;;31.40;99.90;;;;;;4993570;28;20193;-68
2023/12/10 04:03:47;;;;;;;3.03;1.30;;;31.10;99.90;;;;;;4993396;28;20214;-74
2023/12/10 04:06:14;;;;;;;5.70;1.60;;;31.00;99.90;;;;;;4993034;28;20181;-71
2023/12/10 04:08:42;;;;;;;4.18;1.40;;;31.20;99.90;;;;;;4993371;28;20183;-69
2023/12/10 04:11:09;;;;;;;2.60;1.30;;;31.20;99.90;;;;;;4993548;28;20202;-72
2023/12/10 04:13:36;;;;;;;4.18;1.40;;;31.00;99.90;;;;;;4992941;28;20221;-72
2023/12/10 04:16:04;;;;;;;5.28;1.90;;;30.80;99.90;;;;;;4993150;28;20548;-72
2023/12/10 04:18:31;;;;;;;2.40;1.40;;;30.80;99.90;;;;;;4993084;28;20693;-71
2023/12/10 04:20:59;;;;;;;3.97;1.30;;;30.70;99.90;;;;;;4992628;28;20213;-69
2023/12/10 04:23:28;;;;;;;6.53;1.65;;;30.80;99.90;;;;;;4993702;28;20222;-70
2023/12/10 04:25:55;;;;;;;6.57;1.70;;;30.60;99.90;;;;;;4993382;28;20194;-71
2023/12/10 04:28:24;;;;;;;4.90;1.50;;;30.40;99.90;;;;;;4992508;28;20205;-74
2023/12/10 04:30:51;;;;;;;3.33;1.63;;;30.10;99.90;;;;;;4992906;28;20230;-73
2023/12/10 04:33:19;;;;;;;4.80;1.50;;;30.00;99.90;;;;;;4992102;28;20210;-72
2023/12/10 04:35:49;;;;;;;6.80;1.73;;;29.90;99.90;;;;;;4992440;28;20212;-74
2023/12/10 04:38:17;;;;;;;4.70;1.25;;;30.00;99.90;;;;;;4992817;28;20617;-72
2023/12/10 04:40:44;;;;;;;4.43;1.80;;;30.50;99.90;;;;;;4992922;28;20233;-75
2023/12/10 04:43:11;;;;;;;6.00;1.60;;;30.50;99.90;;;;;;4974646;28;20233;-72
2023/12/10 04:45:38;;;;;;;11.80;2.20;;;30.00;99.90;;;;;;4992833;28;20225;-72
2023/12/10 04:48:06;;;;;;;8.50;1.83;;;30.30;99.90;;;;;;4991677;28;20256;-71
2023/12/10 04:50:33;;;;;;;5.73;1.77;;;30.70;99.90;;;;;;4974750;28;20554;-73
2023/12/10 04:53:01;;;;;;;6.05;1.98;;;31.30;99.90;;;;;;4992527;28;20652;-71
2023/12/10 04:55:28;;;;;;;4.90;1.43;;;31.40;99.90;;;;;;4974814;28;20595;-67
2023/12/10 04:57:56;;;;;;;7.37;2.20;;;31.20;99.90;;;;;;4991686;28;20186;-71
2023/12/10 05:00:23;;;;;;;3.50;1.60;;;31.60;99.90;;;;;;4992546;28;20266;-72
2023/12/10 05:02:50;;;;;;;7.55;2.05;;;31.30;99.90;;;;;;4992441;28;20272;-70
2023/12/10 05:05:18;;;;;;;9.93;2.30;;;30.80;99.90;;;;;;4991908;28;20193;-71
2023/12/10 05:07:46;;;;;;;5.00;1.80;;;30.30;99.90;;;;;;4992226;28;20225;-70
2023/12/10 05:10:13;;;;;;;5.05;1.80;;;29.90;99.90;;;;;;4992485;28;20274;-72
2023/12/10 05:12:41;;;;;;;4.00;1.60;;;30.30;99.90;;;;;;4991765;28;20179;-71
2023/12/10 05:15:09;;;;;;;14.63;2.13;;;30.90;99.90;;;;;;4991958;28;20208;-71
2023/12/10 05:17:36;;;;;;;8.70;1.80;;;30.20;99.90;;;;;;4991832;28;20262;-70
2023/12/10 05:20:05;;;;;;;4.57;1.63;;;29.70;99.90;;;;;;4991539;28;20305;-71
2023/12/10 05:22:32;;;;;;;6.93;1.73;;;29.40;99.90;;;;;;4991997;28;20209;-70
2023/12/10 05:25:00;;;;;;;9.03;1.80;;;29.70;99.90;;;;;;4991920;28;20250;-72
2023/12/10 05:27:32;;;;;;;5.95;2.08;;;30.10;99.90;;;;;;4991420;28;20249;-76
2023/12/10 05:30:00;;;;;;;5.67;1.70;;;29.90;99.90;;;;;;4992109;28;20271;-70
2023/12/10 05:32:28;;;;;;;4.30;1.50;;;29.70;99.90;;;;;;4974348;28;20186;-73
2023/12/10 05:34:55;;;;;;;6.00;1.73;;;30.20;99.90;;;;;;4991620;28;20216;-70
2023/12/10 05:37:23;;;;;;;7.97;1.73;;;30.60;99.90;;;;;;4991974;28;20588;-70
2023/12/10 05:39:50;;;;;;;6.53;1.70;;;30.90;99.90;;;;;;4992121;28;20182;-70
2023/12/10 05:42:17;;;;;;;5.37;1.83;;;31.10;99.90;;;;;;4991261;28;20249;-68
2023/12/10 05:44:45;;;;;;;10.00;2.47;;;30.90;99.90;;;;;;4992019;28;20197;-69
2023/12/10 05:47:12;;;;;;;10.80;2.60;;;30.70;99.90;;;;;;4992014;28;20191;-68
2023/12/10 05:49:39;;;;;;;8.37;2.03;;;30.40;99.90;;;;;;4991569;28;20186;-70
2023/12/10 05:52:07;;;;;;;8.50;2.30;;;30.30;99.90;;;;;;4992043;28;20175;-68
2023/12/10 05:54:35;;;;;;;4.53;2.00;;;29.80;99.90;;;;;;4972304;28;20589;-69
2023/12/10 05:57:02;;;;;;;7.20;2.10;;;29.80;99.90;;;;;;4973839;28;20241;-68
2023/12/10 05:59:30;;;;;;;8.63;2.00;;;30.00;99.90;;;;;;4991634;28;20198;-70
2023/12/10 06:01:57;;;;;;;7.13;2.07;;;30.40;99.90;;;;;;4995469;28;20580;-69
2023/12/10 06:04:25;;;;;;;8.77;1.90;;;30.50;99.90;;;;;;4977481;28;20656;-70
2023/12/10 06:06:52;;;;;;;11.00;2.30;;;30.80;99.90;;;;;;4995474;28;20187;-70
2023/12/10 06:09:20;;;;;;;10.13;2.00;;;30.70;99.90;;;;;;4995198;28;20210;-70
2023/12/10 06:11:47;;;;;;;7.27;1.80;;;30.60;99.90;;;;;;4995325;28;20543;-73
2023/12/10 06:14:14;;;;;;;8.77;2.33;;;30.30;99.90;;;;;;4995269;28;20217;-73
2023/12/10 06:16:42;;;;;;;9.47;2.27;;;29.90;99.90;;;;;;4994820;28;20269;-71
2023/12/10 06:19:09;;;;;;;9.40;2.10;;;30.00;99.90;;;;;;4990203;28;20187;-70
2023/12/10 06:21:37;;;;;;;12.13;2.30;;;29.60;99.90;;;;;;4995495;28;20287;-70
2023/12/10 06:24:05;;;;;;;8.27;1.90;;;29.80;99.90;;;;;;4995269;28;20244;-69
2023/12/10 06:26:32;;;;;;;9.57;2.17;;;30.10;99.90;;;;;;4994942;28;20206;-70
2023/12/10 06:29:00;;;;;;;9.30;2.08;;;30.50;99.90;;;;;;4978871;28;20195;-71
2023/12/10 06:31:27;;;;;;;12.10;2.67;;;30.40;99.90;;;;;;4995930;28;20218;-73
2023/12/10 06:33:54;;;;;;;7.63;2.17;;;30.10;99.90;;;;;;4996655;28;20683;-71
2023/12/10 06:36:22;;;;;;;10.00;2.63;;;29.80;99.90;;;;;;4996769;28;20194;-72
2023/12/10 06:38:49;;;;;;;6.83;2.20;;;29.40;99.90;;;;;;4996575;28;20675;-70
2023/12/10 06:41:16;;;;;;;8.37;2.73;;;29.20;99.90;;;;;;4996687;28;20181;-70
2023/12/10 06:43:44;;;;;;;8.73;2.60;;;28.70;99.90;;;;;;4996596;28;20253;-69
2023/12/10 06:46:13;;;;;;;7.77;2.80;;;28.50;99.90;;;;;;4996652;28;20175;-71
2023/12/10 06:48:40;;;;;;;10.23;3.30;;;28.50;99.90;;;;;;4996737;28;20222;-70
2023/12/10 06:51:08;;;;;;;13.83;3.00;;;28.50;99.90;;;;;;4978913;28;20178;-69
2023/12/10 06:53:35;;;;;;;12.17;3.10;;;28.30;99.90;;;;;;4979006;28;20648;-70
2023/12/10 06:56:03;;;;;;;12.50;3.50;;;28.10;99.90;;;;;;4996272;28;20223;-69
2023/12/10 06:58:30;;;;;;;11.13;3.00;;;28.00;99.90;;;;;;4996218;28;20178;-71
2023/12/10 07:00:57;;;;;;;10.17;2.57;;;28.00;99.90;;;;;;4996265;28;20555;-70
2023/12/10 07:03:25;;;;;;;11.13;2.97;;;28.30;99.90;;;;;;4978750;28;20582;-70
2023/12/10 07:05:52;;;;;;;13.87;3.33;;;28.30;99.90;;;;;;4996188;28;20175;-70
2023/12/10 07:08:19;;;;;;;11.00;2.80;;;28.10;99.90;;;;;;4978631;28;20179;-70
2023/12/10 07:10:47;;;;;;;13.37;3.30;;;27.90;99.90;;;;;;4995563;28;20558;-69
2023/12/10 07:13:14;;;;;;;10.33;3.03;;;27.80;99.90;;;;;;4996022;28;20181;-68
2023/12/10 07:15:45;;;;;;;10.73;2.97;;;27.60;99.90;;;;;;4955043;28;20553;-68
2023/12/10 07:18:12;;;;;;;11.13;3.10;;;27.40;99.90;;;;;;4976134;28;20664;-69
2023/12/10 07:20:40;;;;;;;13.67;3.57;;;27.20;99.90;;;;;;4994433;28;20182;-68
2023/12/10 07:23:07;;;;;;;11.47;3.27;;;27.20;99.90;;;;;;4993910;28;20215;-68
2023/12/10 07:25:35;;;;;;;9.27;3.47;;;27.20;99.90;;;;;;4994388;28;20181;-69
2023/12/10 07:28:02;;;;;;;12.93;4.53;;;27.20;99.90;;;;;;4994417;28;20202;-68
2023/12/10 07:30:30;;;;;;;11.07;4.27;;;27.20;99.90;;;;;;4993494;28;20194;-68
2023/12/10 07:32:57;;;;;;;12.07;4.23;;;27.20;99.90;;;;;;4994373;28;20185;-73
2023/12/10 07:35:25;;;;;;;11.97;5.00;;;27.10;99.90;;;;;;4994393;28;20174;-70
2023/12/10 07:37:52;;;;;;;12.97;4.87;;;26.80;99.90;;;;;;4993249;28;20187;-70
2023/12/10 07:40:19;;;;;;;12.60;4.60;;;26.60;99.90;;;;;;4993924;28;20229;-69
2023/12/10 07:42:47;;;;;;;16.60;8.23;;;26.30;99.90;;;;;;4976402;28;20218;-71
2023/12/10 07:45:15;;;;;;;15.37;7.13;;;26.10;99.90;;;;;;4993902;28;20183;-69
2023/12/10 07:47:42;;;;;;;11.77;7.00;;;26.00;99.90;;;;;;4993704;28;20190;-70
2023/12/10 07:50:10;;;;;;;18.03;8.37;;;25.90;99.90;;;;;;4993130;28;20278;-70
2023/12/10 07:52:37;;;;;;;19.50;9.73;;;25.90;99.90;;;;;;4993006;28;20183;-70
2023/12/10 07:55:05;;;;;;;16.30;11.97;;;25.80;99.90;;;;;;4993415;28;20230;-70
2023/12/10 07:57:33;;;;;;;17.97;12.13;;;25.70;99.90;;;;;;4993590;28;20181;-70
2023/12/10 08:00:00;;;;;;;19.93;11.37;;;25.60;99.90;;;;;;4993308;28;20182;-69
2023/12/10 08:02:27;;;;;;;18.50;11.50;;;25.50;99.90;;;;;;4993648;28;20211;-71
2023/12/10 08:04:55;;;;;;;20.47;10.87;;;25.50;99.90;;;;;;4975761;28;20190;-72
2023/12/10 08:07:22;;;;;;;16.93;11.93;;;25.60;99.90;;;;;;4993069;28;20563;-69
2023/12/10 08:09:50;;;;;;;17.53;11.87;;;25.60;99.90;;;;;;4975722;28;20186;-71
2023/12/10 08:12:18;;;;;;;22.13;13.60;;;25.50;99.90;;;;;;4993307;28;20296;-69
2023/12/10 08:14:45;;;;;;;22.47;13.87;;;25.50;99.90;;;;;;4993383;28;20221;-70
2023/12/10 08:17:12;;;;;;;21.30;14.47;;;25.60;99.90;;;;;;4994070;28;20258;-70
2023/12/10 08:19:40;;;;;;;22.07;14.20;;;25.60;99.90;;;;;;4994645;28;20628;-71
2023/12/10 08:22:07;;;;;;;26.20;16.17;;;25.60;99.90;;;;;;4994279;28;20576;-70
2023/12/10 08:24:35;;;;;;;22.73;14.70;;;25.50;99.90;;;;;;4994161;28;20229;-69
2023/12/10 08:27:02;;;;;;;19.90;14.60;;;25.40;99.90;;;;;;4977388;28;20526;-69
2023/12/10 08:29:30;;;;;;;24.73;14.67;;;25.40;99.90;;;;;;4994512;28;20193;-69
2023/12/10 08:31:57;;;;;;;23.17;14.57;;;25.40;99.90;;;;;;4994671;28;20189;-71
2023/12/10 08:34:25;;;;;;;21.77;14.30;;;25.30;99.90;;;;;;4994461;28;20190;-70
2023/12/10 08:36:52;;;;;;;21.70;14.30;;;25.30;99.90;;;;;;4994391;28;20640;-71
2023/12/10 08:39:20;;;;;;;25.07;15.80;;;25.30;99.90;;;;;;4994524;28;20229;-69
2023/12/10 08:41:47;;;;;;;22.67;14.60;;;25.30;99.90;;;;;;4993881;28;20676;-71
2023/12/10 08:44:15;;;;;;;25.53;17.00;;;25.20;99.90;;;;;;4994484;28;20182;-70
2023/12/10 08:46:42;;;;;;;25.90;16.90;;;25.30;99.90;;;;;;4994439;28;20185;-72
2023/12/10 08:49:09;;;;;;;27.13;15.63;;;25.30;99.90;;;;;;4995162;28;20194;-71
2023/12/10 08:51:37;;;;;;;24.43;16.73;;;25.30;99.90;;;;;;4994174;28;20194;-70
2023/12/10 08:54:04;;;;;;;22.47;14.80;;;25.30;99.90;;;;;;4993962;28;20186;-72
2023/12/10 08:56:32;;;;;;;23.07;14.30;;;25.20;99.90;;;;;;4976832;28;20284;-71
2023/12/10 08:58:59;;;;;;;25.30;14.90;;;25.20;99.90;;;;;;4976486;28;20222;-71
2023/12/10 09:01:27;;;;;;;19.87;13.67;;;25.20;99.90;;;;;;4994075;28;20567;-70
2023/12/10 09:03:54;;;;;;;28.33;14.20;;;25.20;99.90;;;;;;4993898;28;20719;-69
2023/12/10 09:06:22;;;;;;;25.47;14.73;;;25.10;99.90;;;;;;4993906;28;20175;-71
2023/12/10 09:08:49;;;;;;;21.47;14.33;;;25.10;99.90;;;;;;4993874;28;20197;-69
2023/12/10 09:11:17;;;;;;;22.50;12.37;;;25.10;99.90;;;;;;4993664;28;20178;-69
2023/12/10 09:13:44;;;;;;;20.93;12.20;;;25.10;99.90;;;;;;4993919;28;20179;-69
2023/12/10 09:16:11;;;;;;;20.73;12.73;;;25.10;99.90;;;;;;4994047;28;20183;-70
2023/12/10 09:18:39;;;;;;;17.63;12.07;;;25.10;99.90;;;;;;4993637;28;20281;-70
2023/12/10 09:21:07;;;;;;;18.10;11.03;;;25.10;99.90;;;;;;4994173;28;20182;-70
2023/12/10 09:23:35;;;;;;;21.17;10.93;;;25.00;99.90;;;;;;4993781;28;20296;-71
2023/12/10 09:26:02;;;;;;;19.27;11.10;;;25.00;99.90;;;;;;4993599;28;20662;-70
2023/12/10 09:28:30;;;;;;;19.67;10.80;;;24.90;99.90;;;;;;4993726;28;20282;-70
2023/12/10 09:30:57;;;;;;;19.30;10.80;;;24.90;99.90;;;;;;4993558;28;20210;-70
2023/12/10 09:33:24;;;;;;;17.07;9.27;;;24.90;99.90;;;;;;4993739;28;20183;-69
2023/12/10 09:35:52;;;;;;;19.10;10.10;;;24.90;99.90;;;;;;5000555;28;20723;-69
2023/12/10 09:38:19;;;;;;;20.77;9.03;;;24.90;99.90;;;;;;5000287;28;20206;-72
2023/12/10 09:40:47;;;;;;;21.63;9.37;;;24.80;99.90;;;;;;5000276;28;20528;-71
2023/12/10 09:43:14;;;;;;;20.17;7.60;;;24.70;99.90;;;;;;5000138;28;20214;-72
2023/12/10 09:45:41;;;;;;;20.57;7.97;;;24.60;99.90;;;;;;5000281;28;20175;-69
2023/12/10 09:48:09;;;;;;;23.13;8.80;;;24.50;99.90;;;;;;5000153;28;20253;-72
2023/12/10 09:50:41;;;;;;;18.30;8.70;;;24.40;99.90;;;;;;5000229;28;20265;-69
2023/12/10 09:53:09;;;;;;;18.93;9.53;;;24.40;99.90;;;;;;5000045;28;20221;-69
2023/12/10 09:55:36;;;;;;;16.77;7.77;;;24.40;99.90;;;;;;4999544;28;20222;-69
2023/12/10 09:58:03;;;;;;;19.47;8.23;;;24.40;99.90;;;;;;4999994;28;20248;-70
2023/12/10 10:00:31;;;;;;;20.17;7.57;;;24.40;99.90;;;;;;5005375;28;20174;-71
2023/12/10 10:03:04;;;;;;;19.00;6.63;;;24.30;99.90;;;;;;5012624;28;20206;-70
2023/12/10 10:05:34;;;;;;;23.33;7.30;;;24.30;99.90;;;;;;5002416;28;20190;-70
2023/12/10 10:08:01;;;;;;;18.67;6.67;;;24.30;99.90;;;;;;5000740;28;20656;-71
2023/12/10 10:10:29;;;;;;;11.17;6.97;;;24.30;99.90;;;;;;5000348;28;20182;-72
2023/12/10 10:12:59;;;;;;;18.53;6.50;;;24.30;99.90;;;;;;5000283;28;20178;-70
2023/12/10 10:15:28;;;;;;;16.53;6.77;;;24.30;99.90;;;;;;4999927;28;20174;-71
2023/12/10 10:17:56;;;;;;;13.37;5.27;;;24.30;99.90;;;;;;5000046;28;20205;-71
2023/12/10 10:20:24;;;;;;;15.27;6.50;;;24.40;99.90;;;;;;5000056;28;20194;-70
2023/12/10 10:22:54;;;;;;;16.53;6.03;;;24.40;99.90;;;;;;4999920;28;20565;-70
2023/12/10 10:25:22;;;;;;;16.07;5.90;;;24.40;99.90;;;;;;5000177;28;20174;-70
2023/12/10 10:27:50;;;;;;;12.27;5.97;;;24.50;99.90;;;;;;4999954;28;20183;-71
2023/12/10 10:30:17;;;;;;;16.40;6.97;;;24.40;99.90;;;;;;4999785;28;20593;-70
2023/12/10 10:32:46;;;;;;;13.63;5.40;;;24.40;99.90;;;;;;4999920;28;20200;-70
2023/12/10 10:35:14;;;;;;;17.23;6.27;;;24.40;99.90;;;;;;4999771;28;20237;-72
2023/12/10 10:37:43;;;;;;;12.57;5.30;;;24.40;99.90;;;;;;4999769;28;20616;-69
2023/12/10 10:40:10;;;;;;;13.07;5.20;;;24.40;99.90;;;;;;4999785;28;20205;-70
2023/12/10 10:42:38;;;;;;;12.63;5.20;;;24.40;99.90;;;;;;4999906;28;20671;-70
2023/12/10 10:45:06;;;;;;;18.17;5.60;;;24.50;99.90;;;;;;4999504;28;20182;-71
2023/12/10 10:47:35;;;;;;;17.20;5.73;;;24.50;99.90;;;;;;4996103;28;20269;-73
2023/12/10 10:50:04;;;;;;;21.87;5.40;;;24.40;99.90;;;;;;4996778;28;20182;-69
2023/12/10 10:52:34;;;;;;;16.00;5.57;;;24.40;99.90;;;;;;4995262;28;20270;-72
2023/12/10 10:55:02;;;;;;;13.80;5.50;;;24.40;99.90;;;;;;4996379;28;20274;-71
2023/12/10 10:57:31;;;;;;;14.17;4.80;;;24.40;99.90;;;;;;4996499;28;20662;-73
2023/12/10 10:59:59;;;;;;;9.03;4.67;;;24.40;99.90;;;;;;4996138;28;20190;-73
2023/12/10 11:02:26;;;;;;;17.10;5.27;;;24.40;99.90;;;;;;4996525;28;20215;-73
2023/12/10 11:04:56;;;;;;;16.17;5.50;;;24.40;99.90;;;;;;4996523;28;20175;-69
2023/12/10 11:07:25;;;;;;;17.90;5.87;;;24.40;99.90;;;;;;4996304;28;20262;-72
2023/12/10 11:10:01;;;;;;;17.73;6.03;;;24.40;99.90;;;;;;4997510;28;20643;-69
2023/12/10 11:12:41;;;;;;;20.23;5.27;;;24.30;99.90;;;;;;4998380;28;20202;-70
2023/12/10 11:15:18;;;;;;;16.23;6.10;;;24.20;99.90;;;;;;4995532;28;20699;-74
2023/12/10 11:17:57;;;;;;;21.27;6.87;;;24.20;99.90;;;;;;4996756;28;20261;-74
2023/12/10 11:20:43;;;;;;;13.20;4.87;;;24.20;99.90;;;;;;4994904;28;20187;-71
2023/12/10 11:23:13;;;;;;;20.30;4.90;;;24.20;99.90;;;;;;4979162;28;20806;-69
2023/12/10 11:25:42;;;;;;;15.37;4.73;;;24.20;99.90;;;;;;4996426;28;20182;-71
2023/12/10 11:28:14;;;;;;;18.27;4.77;;;24.10;99.90;;;;;;4996781;28;20574;-71
2023/12/10 11:30:46;;;;;;;14.00;3.67;;;24.10;99.90;;;;;;4995224;28;20175;-74
2023/12/10 11:33:15;;;;;;;16.17;5.73;;;24.20;99.90;;;;;;4996902;28;20275;-75
2023/12/10 11:35:43;;;;;;;17.60;4.80;;;24.10;99.90;;;;;;4996674;28;20182;-69
2023/12/10 11:38:10;;;;;;;12.13;4.10;;;24.10;99.90;;;;;;4996174;28;20190;-73
2023/12/10 11:40:38;;;;;;;16.10;4.20;;;24.00;99.90;;;;;;4995979;28;20179;-71
2023/12/10 11:43:09;;;;;;;12.40;5.33;;;24.00;99.90;;;;;;4995957;28;20238;-73
2023/12/10 11:45:37;;;;;;;13.73;4.27;;;23.90;99.90;;;;;;4995885;28;20197;-71
2023/12/10 11:48:05;;;;;;;17.60;4.37;;;24.00;99.90;;;;;;4994263;28;20594;-73
2023/12/10 11:50:33;;;;;;;15.40;4.80;;;24.00;99.90;;;;;;4995948;28;20174;-73
2023/12/10 11:53:01;;;;;;;12.43;3.93;;;23.90;99.90;;;;;;4994420;28;20190;-72
2023/12/10 11:55:30;;;;;;;17.17;4.13;;;23.90;99.90;;;;;;4994935;28;20695;-70
2023/12/10 11:57:58;;;;;;;15.00;4.63;;;23.90;99.90;;;;;;4994345;28;20222;-73
2023/12/10 12:00:26;;;;;;;10.07;4.30;;;23.90;99.90;;;;;;4995262;28;20209;-74
2023/12/10 12:02:54;;;;;;;14.93;3.87;;;23.90;99.90;;;;;;4995124;28;20250;-70
2023/12/10 12:05:21;;;;;;;16.40;4.27;;;23.80;99.90;;;;;;4975815;28;20182;-71
2023/12/10 12:07:52;;;;;;;14.90;3.93;;;23.80;99.90;;;;;;4976732;28;20194;-74
2023/12/10 12:10:19;;;;;;;21.77;3.87;;;23.80;99.90;;;;;;4995335;28;20304;-74
2023/12/10 12:12:48;;;;;;;14.33;4.03;;;23.60;99.90;;;;;;4977448;28;20190;-73
2023/12/10 12:15:17;;;;;;;11.47;3.67;;;23.60;99.90;;;;;;4993929;28;20722;-74
2023/12/10 12:17:45;;;;;;;16.43;4.07;;;23.60;99.90;;;;;;4991063;28;20182;-73
2023/12/10 12:20:22;;;;;;;14.97;4.60;;;23.60;99.90;;;;;;4994799;28;20194;-71
2023/12/10 12:22:50;;;;;;;12.13;3.77;;;23.50;99.90;;;;;;4994895;28;20269;-73
2023/12/10 12:25:18;;;;;;;19.53;4.10;;;23.50;99.90;;;;;;4976832;28;20277;-72
2023/12/10 12:27:46;;;;;;;12.50;3.60;;;23.50;99.90;;;;;;4994867;28;20190;-75
2023/12/10 12:30:15;;;;;;;20.97;4.17;;;23.40;99.90;;;;;;5004007;28;20178;-73
2023/12/10 12:32:42;;;;;;;11.13;3.30;;;23.30;99.90;;;;;;5006034;28;20185;-74
2023/12/10 12:35:09;;;;;;;13.63;4.10;;;23.20;99.90;;;;;;4996181;28;20185;-74
2023/12/10 12:37:37;;;;;;;11.87;4.10;;;23.20;99.90;;;;;;4977277;28;20246;-73
2023/12/10 12:40:06;;;;;;;14.93;3.57;;;23.10;99.90;;;;;;4994500;28;20186;-73
2023/12/10 12:42:34;;;;;;;11.47;3.57;;;23.10;99.90;;;;;;4994988;28;20229;-73
2023/12/10 12:45:02;;;;;;;13.37;4.10;;;23.10;99.90;;;;;;4995272;28;20558;-74
2023/12/10 12:47:30;;;;;;;13.20;3.77;;;23.10;99.90;;;;;;4995607;28;20202;-69
2023/12/10 12:49:57;;;;;;;14.70;4.20;;;23.10;99.90;;;;;;4995544;28;20181;-70
2023/12/10 12:52:25;;;;;;;10.80;3.80;;;23.00;99.90;;;;;;4995576;28;20193;-70
2023/12/10 12:54:52;;;;;;;16.87;4.33;;;23.00;99.90;;;;;;4995255;28;20222;-70
2023/12/10 12:57:19;;;;;;;17.23;4.67;;;23.00;99.90;;;;;;4995644;28;20198;-70